Terminal Aerodrome Forecast
Issued by NWS

Home | Current Version | Previous Version | Text Only | Print | Product List | Glossary On
Versions: 1 2 3 4 5 6 7 8 9 10 11 12 13 14 15 16 17 18 19 20 21
000
FTUS44 KMOB 171513 AAB
TAFBFM
TAF AMD
KBFM 171513Z 1715/1812 18005KT 3SM BR BKN003 OVC018
     FM171700 17008KT P6SM FEW010 SCT030
     FM180200 16003KT 4SM BR FEW004 BKN050=

USA.gov is the U.S. government's official web portal to all federal, state and local government web resources and services.